Time;durP1;ratioP1;P1;durP2;ratioP2;P2;SDS_P1;SDS_P2;PMS_P1;PMS_P2;Temp;Humidity;BMP_temperature;BMP_pressure;BME280_temperature;BME280_humidity;BME280_pressure;Samples;Min_cycle;Max_cycle;Signal;HPM_P1;HPM_P2
2022/05/09 00:01:05;;;;;;;4.15;1.87;;;15.80;99.90;;;;;;1902030;75;21205;-79
2022/05/09 00:06:36;;;;;;;1.95;1.85;;;15.80;99.90;;;;;;1975107;72;23703;-79
2022/05/09 00:09:45;;;;;;;2.30;2.10;;;15.90;99.90;;;;;;1925822;73;21116;-78
2022/05/09 00:12:55;;;;;;;2.10;1.82;;;15.80;99.90;;;;;;1927238;73;21038;-78
2022/05/09 00:15:46;;;;;;;5.70;2.00;;;15.80;99.90;;;;;;1919060;73;21124;-78
2022/05/09 00:21:39;;;;;;;2.12;1.92;;;15.70;99.90;;;;;;1946488;72;22269;-79
2022/05/09 00:27:29;;;;;;;2.50;2.02;;;15.60;99.90;;;;;;1949122;72;22203;-79
2022/05/09 00:30:39;;;;;;;1.95;1.80;;;15.60;99.90;;;;;;1906348;75;21118;-80
2022/05/09 00:33:48;;;;;;;2.05;1.90;;;15.60;99.90;;;;;;1886387;75;21066;-79
2022/05/09 00:36:40;;;;;;;1.95;1.60;;;15.60;99.90;;;;;;1887400;75;21155;-79
2022/05/09 00:42:30;;;;;;;3.47;2.20;;;15.60;99.90;;;;;;1957598;72;22715;-79
2022/05/09 00:45:40;;;;;;;2.65;1.80;;;15.50;99.90;;;;;;1962557;72;21092;-80
2022/05/09 00:48:49;;;;;;;2.35;1.95;;;15.40;99.90;;;;;;1952953;72;21090;-79
2022/05/09 00:54:32;;;;;;;3.02;2.10;;;15.30;99.90;;;;;;1948519;72;22135;-79
2022/05/09 01:00:25;;;;;;;3.72;2.30;;;15.20;99.90;;;;;;1939393;72;22200;-79
2022/05/09 01:03:39;;;;;;;2.67;1.85;;;15.20;99.90;;;;;;1904016;75;21108;-79
2022/05/09 01:06:49;;;;;;;2.00;1.90;;;15.20;99.90;;;;;;1911464;75;21098;-79
2022/05/09 01:09:40;;;;;;;2.00;1.90;;;15.20;99.90;;;;;;1907756;75;21138;-79
2022/05/09 01:15:30;;;;;;;3.37;2.10;;;15.30;99.90;;;;;;1946143;72;22213;-78
2022/05/09 01:18:40;;;;;;;2.15;2.05;;;15.20;99.90;;;;;;1888033;75;21589;-81
2022/05/09 01:21:50;;;;;;;2.20;2.00;;;15.10;99.90;;;;;;1898590;75;21095;-79
2022/05/09 01:24:42;;;;;;;5.03;2.50;;;15.00;99.90;;;;;;1906838;74;21259;-79
2022/05/09 01:30:35;;;;;;;2.58;2.10;;;15.00;99.90;;;;;;1941414;72;22178;-78
2022/05/09 01:33:49;;;;;;;3.77;2.35;;;15.00;99.90;;;;;;1906848;75;21121;-80
2022/05/09 01:37:03;;;;;;;2.30;2.10;;;15.00;99.90;;;;;;1896413;75;21086;-80
2022/05/09 01:39:55;;;;;;;2.67;2.20;;;15.10;99.90;;;;;;1905787;75;21336;-79
2022/05/09 01:43:05;;;;;;;2.52;2.10;;;15.10;99.90;;;;;;1901876;73;21148;-79
2022/05/09 01:45:57;;;;;;;2.30;2.00;;;15.00;99.90;;;;;;1889467;75;21093;-79
2022/05/09 01:51:59;;;;;;;2.58;2.35;;;15.00;99.90;;;;;;1900342;75;21113;-79
2022/05/09 01:54:50;;;;;;;2.65;2.37;;;15.00;99.90;;;;;;1911618;75;21052;-79
2022/05/09 01:57:42;;;;;;;3.90;2.10;;;14.90;99.90;;;;;;1903785;75;21087;-79
2022/05/09 02:00:33;;;;;;;2.90;2.33;;;14.90;99.90;;;;;;1896915;75;21565;-78
2022/05/09 02:06:04;;;;;;;2.83;2.37;;;14.80;99.90;;;;;;1952091;72;22254;-78
2022/05/09 02:09:14;;;;;;;4.83;2.35;;;14.80;99.90;;;;;;1918411;73;21062;-78
2022/05/09 02:12:24;;;;;;;2.50;2.30;;;14.90;99.90;;;;;;1930752;73;21041;-78
2022/05/09 02:15:16;;;;;;;3.40;2.60;;;14.80;99.90;;;;;;1894083;74;21130;-78
2022/05/09 02:18:25;;;;;;;2.95;2.33;;;14.70;99.90;;;;;;1917611;75;21479;-78
2022/05/09 02:21:17;;;;;;;2.60;2.37;;;14.60;99.90;;;;;;1937385;73;21114;-78
2022/05/09 02:24:10;;;;;;;3.35;2.35;;;14.60;99.90;;;;;;1929376;73;21186;-78
2022/05/09 02:27:02;;;;;;;5.45;3.15;;;14.60;99.90;;;;;;1929366;73;21110;-78
2022/05/09 02:29:54;;;;;;;3.17;2.47;;;14.60;99.90;;;;;;1929268;73;21522;-79
2022/05/09 02:32:45;;;;;;;3.47;2.37;;;14.60;99.90;;;;;;1917572;73;21051;-78
2022/05/09 02:35:38;;;;;;;3.22;2.47;;;14.60;99.90;;;;;;1917449;73;21063;-78
2022/05/09 02:38:30;;;;;;;5.12;2.37;;;14.60;99.90;;;;;;1921019;73;21091;-78
2022/05/09 02:41:22;;;;;;;3.58;2.20;;;14.60;99.90;;;;;;1930297;73;21092;-78
2022/05/09 02:44:14;;;;;;;4.17;2.40;;;14.60;99.90;;;;;;1933716;73;21097;-79
2022/05/09 02:47:06;;;;;;;3.00;2.70;;;14.50;99.90;;;;;;1921665;73;21128;-80
2022/05/09 02:52:38;;;;;;;3.95;2.30;;;14.50;99.90;;;;;;1944597;72;22209;-78
2022/05/09 02:55:48;;;;;;;3.08;2.37;;;14.50;99.90;;;;;;1900901;75;21136;-78
2022/05/09 02:58:57;;;;;;;3.15;2.52;;;14.50;99.90;;;;;;1899648;75;21076;-78
2022/05/09 03:01:49;;;;;;;3.12;2.20;;;14.50;99.90;;;;;;1916111;75;21568;-78
2022/05/09 03:04:58;;;;;;;2.95;2.65;;;14.50;99.90;;;;;;1913260;75;21082;-78
2022/05/09 03:07:50;;;;;;;2.98;2.67;;;14.40;99.90;;;;;;1887129;75;21183;-78
2022/05/09 03:10:42;;;;;;;2.52;2.33;;;14.30;99.90;;;;;;1894020;75;21103;-81
2022/05/09 03:13:34;;;;;;;2.62;2.40;;;14.30;99.90;;;;;;1913107;73;22091;-79
2022/05/09 03:19:09;;;;;;;3.10;2.40;;;14.30;99.90;;;;;;1951608;72;22240;-78
2022/05/09 03:22:19;;;;;;;2.17;1.98;;;14.30;99.90;;;;;;1914173;74;21140;-79
2022/05/09 03:25:28;;;;;;;3.02;2.20;;;14.30;99.90;;;;;;1913276;75;21164;-79
2022/05/09 03:31:00;;;;;;;2.98;2.30;;;14.20;99.90;;;;;;1942978;72;22235;-79
2022/05/09 03:34:10;;;;;;;3.33;2.02;;;14.20;99.90;;;;;;1917585;75;21087;-80
2022/05/09 03:37:19;;;;;;;4.10;2.20;;;14.30;99.90;;;;;;1928544;73;21039;-79
2022/05/09 03:40:13;;;;;;;2.60;2.30;;;14.30;99.90;;;;;;1928056;73;21063;-79
2022/05/09 03:43:23;;;;;;;2.80;2.50;;;14.20;99.90;;;;;;1918467;73;21715;-79
2022/05/09 03:46:15;;;;;;;3.05;2.50;;;14.20;99.90;;;;;;1895885;75;21468;-79
2022/05/09 03:49:06;;;;;;;4.45;2.40;;;14.10;99.90;;;;;;1922271;73;21765;-79
2022/05/09 03:51:57;;;;;;;11.12;2.90;;;14.20;99.90;;;;;;1927997;73;21118;-79
2022/05/09 03:54:49;;;;;;;6.20;3.33;;;14.10;99.90;;;;;;1934384;73;21098;-79
2022/05/09 04:00:32;;;;;;;4.87;2.62;;;14.00;99.90;;;;;;1940390;72;22134;-78
2022/05/09 04:06:22;;;;;;;3.17;2.50;;;13.90;99.90;;;;;;1934958;72;22804;-78
2022/05/09 04:09:32;;;;;;;3.10;2.50;;;13.90;99.90;;;;;;1894758;74;21113;-79
2022/05/09 04:12:42;;;;;;;3.25;2.70;;;13.90;99.90;;;;;;1904778;73;21043;-79
2022/05/09 04:19:02;;;;;;;2.85;2.55;;;13.80;99.90;;;;;;1893453;75;21142;-79
2022/05/09 04:21:53;;;;;;;3.33;2.80;;;13.80;99.90;;;;;;1911047;75;21113;-79
2022/05/09 04:24:45;;;;;;;2.77;2.50;;;13.70;99.90;;;;;;1891069;75;21102;-79
2022/05/09 04:27:36;;;;;;;6.37;3.05;;;13.70;99.90;;;;;;1906820;75;21066;-79
2022/05/09 04:30:27;;;;;;;4.85;2.87;;;13.70;99.90;;;;;;1907481;75;21494;-79
2022/05/09 04:33:20;;;;;;;2.72;2.50;;;13.80;99.90;;;;;;1906406;75;21087;-79
2022/05/09 04:36:11;;;;;;;4.22;2.90;;;13.90;99.90;;;;;;1904437;75;21564;-79
2022/05/09 04:39:03;;;;;;;4.20;2.72;;;13.90;99.90;;;;;;1907030;75;21090;-79
2022/05/09 04:41:55;;;;;;;3.62;2.25;;;13.90;99.90;;;;;;1895961;73;21600;-79
2022/05/09 04:44:47;;;;;;;3.55;3.12;;;13.90;99.90;;;;;;1905554;73;21065;-79
2022/05/09 04:47:38;;;;;;;3.70;2.55;;;13.90;99.90;;;;;;1899448;75;21099;-79
2022/05/09 04:53:08;;;;;;;3.72;2.90;;;14.00;99.90;;;;;;1933641;72;22209;-78
2022/05/09 04:56:20;;;;;;;5.03;3.52;;;14.00;99.90;;;;;;1908065;75;21136;-80
2022/05/09 04:59:30;;;;;;;3.35;2.92;;;14.00;99.90;;;;;;1907335;75;21551;-80
2022/05/09 05:02:21;;;;;;;3.22;2.92;;;14.00;99.90;;;;;;1904116;75;21124;-79
2022/05/09 05:08:13;;;;;;;3.30;3.00;;;14.10;99.90;;;;;;1942488;72;22176;-79
2022/05/09 05:11:22;;;;;;;3.35;2.77;;;14.10;99.90;;;;;;1900281;74;21083;-79
2022/05/09 05:14:32;;;;;;;4.75;3.52;;;14.10;99.90;;;;;;1914711;73;21070;-79
2022/05/09 05:17:23;;;;;;;5.12;3.72;;;14.10;99.90;;;;;;1892206;75;21499;-79
2022/05/09 05:20:33;;;;;;;5.85;3.70;;;14.10;99.90;;;;;;1907430;75;21103;-79
2022/05/09 05:26:03;;;;;;;5.92;3.02;;;14.10;99.90;;;;;;1942679;72;22677;-78
2022/05/09 05:29:15;;;;;;;4.37;2.98;;;14.10;99.90;;;;;;1910044;75;21565;-79
2022/05/09 05:32:28;;;;;;;6.05;3.42;;;14.00;99.90;;;;;;1913260;75;21031;-79
2022/05/09 05:37:59;;;;;;;5.33;3.27;;;14.10;99.90;;;;;;1946767;72;22095;-79
2022/05/09 05:41:10;;;;;;;4.40;3.42;;;14.10;99.90;;;;;;1904228;75;21540;-80
2022/05/09 05:44:20;;;;;;;4.37;3.58;;;14.10;99.90;;;;;;1928450;73;21210;-79
2022/05/09 05:47:14;;;;;;;6.12;3.10;;;14.20;99.90;;;;;;1916305;75;21117;-79
2022/05/09 05:50:25;;;;;;;5.47;3.25;;;14.20;99.90;;;;;;1900013;75;21048;-79
2022/05/09 05:55:55;;;;;;;4.22;3.50;;;14.20;99.90;;;;;;1951290;72;22264;-80
2022/05/09 05:59:04;;;;;;;5.28;3.47;;;14.20;99.90;;;;;;1901418;75;21113;-79
2022/05/09 06:02:14;;;;;;;3.95;3.05;;;14.20;99.90;;;;;;1899783;75;21619;-79
2022/05/09 06:05:09;;;;;;;3.47;3.15;;;14.20;99.90;;;;;;1885298;75;21522;-78
2022/05/09 06:11:00;;;;;;;5.25;3.12;;;14.30;99.90;;;;;;1961791;72;22138;-80
2022/05/09 06:14:10;;;;;;;4.05;3.30;;;14.30;99.90;;;;;;1942880;73;21190;-79
2022/05/09 06:17:20;;;;;;;3.40;2.98;;;14.40;99.90;;;;;;1937693;73;21074;-81
2022/05/09 06:20:13;;;;;;;3.65;3.27;;;14.50;99.90;;;;;;1931171;73;21533;-81
2022/05/09 06:23:25;;;;;;;5.62;3.00;;;14.50;99.90;;;;;;1939695;73;21152;-81
2022/05/09 06:26:16;;;;;;;5.37;3.20;;;14.60;99.90;;;;;;1921887;73;21040;-80
2022/05/09 06:29:08;;;;;;;4.85;2.80;;;14.60;99.90;;;;;;1932945;73;21581;-80
2022/05/09 06:32:00;;;;;;;3.10;2.58;;;14.70;99.90;;;;;;1931625;73;21043;-80
2022/05/09 06:34:52;;;;;;;3.45;3.05;;;14.80;99.90;;;;;;1938539;73;21152;-80
2022/05/09 06:37:45;;;;;;;3.67;3.22;;;14.90;99.90;;;;;;1921330;73;21101;-80
2022/05/09 06:40:36;;;;;;;3.33;3.02;;;15.00;99.90;;;;;;1916377;73;21157;-80
2022/05/09 06:43:29;;;;;;;6.12;3.17;;;15.00;99.90;;;;;;1935824;73;21099;-80
2022/05/09 06:46:22;;;;;;;3.42;3.10;;;15.10;99.90;;;;;;1947741;73;21115;-80
2022/05/09 06:49:14;;;;;;;5.83;3.37;;;15.20;99.90;;;;;;1925440;73;21097;-80
2022/05/09 06:52:06;;;;;;;4.83;3.42;;;15.30;99.90;;;;;;1916370;73;21107;-80
2022/05/09 06:57:39;;;;;;;4.50;3.75;;;15.50;99.90;;;;;;1975815;72;22233;-80
2022/05/09 07:00:49;;;;;;;8.15;4.33;;;15.60;99.90;;;;;;1939892;73;21098;-80
2022/05/09 07:06:39;;;;;;;6.37;2.92;;;15.80;99.90;;;;;;1950808;72;22312;-81
2022/05/09 07:09:50;;;;;;;3.60;3.00;;;15.80;99.90;;;;;;1918758;74;21105;-80
2022/05/09 07:15:39;;;;;;;3.65;2.98;;;16.00;99.90;;;;;;1965841;72;22352;-81
2022/05/09 07:21:29;;;;;;;4.97;3.20;;;16.20;99.90;;;;;;1955658;72;22284;-80
2022/05/09 07:24:40;;;;;;;6.17;3.12;;;16.20;99.90;;;;;;1908901;75;21090;-80
2022/05/09 07:30:29;;;;;;;4.95;2.83;;;16.40;99.90;;;;;;1916307;72;22172;-80
2022/05/09 07:33:39;;;;;;;4.65;3.20;;;16.50;99.90;;;;;;1869186;76;21509;-81
2022/05/09 07:36:50;;;;;;;4.28;3.10;;;16.50;99.90;;;;;;1886561;75;21087;-79
2022/05/09 07:42:23;;;;;;;3.92;3.27;;;16.60;99.90;;;;;;1933722;72;22659;-79
2022/05/09 07:45:33;;;;;;;5.35;3.30;;;16.70;99.90;;;;;;1899961;74;21423;-83
2022/05/09 07:51:21;;;;;;;4.67;2.92;;;16.80;99.90;;;;;;1976312;72;22220;-81
2022/05/09 07:54:31;;;;;;;3.72;2.35;;;17.00;99.90;;;;;;1917796;75;21076;-81
2022/05/09 07:57:41;;;;;;;3.72;2.85;;;17.10;99.90;;;;;;1918727;73;21096;-82
2022/05/09 08:03:18;;;;;;;3.33;3.00;;;17.30;99.90;;;;;;1938803;72;22257;-82
2022/05/09 08:06:28;;;;;;;;;;;17.40;99.90;;;;;;1918150;75;21466;-81
2022/05/09 08:12:00;;;;;;;3.05;2.22;;;17.50;99.90;;;;;;1944578;72;22252;-81
2022/05/09 08:15:12;;;;;;;5.70;2.33;;;17.60;99.90;;;;;;1884660;73;21575;-81
2022/05/09 08:21:02;;;;;;;3.10;1.85;;;17.70;99.90;;;;;;1940110;72;22193;-81
2022/05/09 08:24:12;;;;;;;4.33;2.15;;;17.70;99.90;;;;;;1908242;74;21709;-81
2022/05/09 08:27:22;;;;;;;2.80;1.85;;;17.80;99.90;;;;;;1914949;74;21034;-83
2022/05/09 08:30:15;;;;;;;3.40;2.00;;;17.90;99.90;;;;;;1906934;75;21126;-82
2022/05/09 08:33:28;;;;;;;4.03;1.98;;;18.00;99.90;;;;;;1892866;75;21051;-81
2022/05/09 08:39:32;;;;;;;2.98;1.67;;;18.10;99.90;;;;;;1916583;75;21486;-81
2022/05/09 08:42:26;;;;;;;5.17;1.90;;;18.30;99.90;;;;;;1893772;73;21170;-81
2022/05/09 08:45:25;;;;;;;4.80;2.70;;;18.50;99.90;;;;;;1891320;73;21091;-81
2022/05/09 08:48:35;;;;;;;2.92;2.20;;;18.60;99.90;;;;;;1894739;75;21105;-82
2022/05/09 08:51:36;;;;;;;3.47;1.80;;;18.60;99.90;;;;;;1907457;73;21097;-82
2022/05/09 08:57:11;;;;;;;2.22;1.80;;;18.90;99.90;;;;;;1945164;72;22256;-81
2022/05/09 09:00:23;;;;;;;2.58;1.87;;;19.10;99.90;;;;;;1903303;75;21160;-82
2022/05/09 09:03:37;;;;;;;4.58;2.15;;;19.20;99.90;;;;;;1892922;74;21111;-83
2022/05/09 09:06:40;;;;;;;3.42;2.05;;;19.20;99.90;;;;;;1905916;75;21095;-83
2022/05/09 09:12:41;;;;;;;3.27;1.98;;;19.30;99.90;;;;;;1952893;72;22359;-81
2022/05/09 09:15:56;;;;;;;2.20;1.57;;;19.30;99.90;;;;;;1907938;75;21143;-81
2022/05/09 09:19:26;;;;;;;3.47;1.95;;;19.20;99.90;;;;;;1895012;75;21310;-81
2022/05/09 09:22:24;;;;;;;2.70;2.40;;;19.10;99.90;;;;;;1894630;75;21185;-81
2022/05/09 09:25:42;;;;;;;3.40;1.77;;;19.30;99.90;;;;;;1906685;75;21172;-82
2022/05/09 09:28:46;;;;;;;3.95;2.17;;;19.50;99.90;;;;;;1892010;75;21144;-82
2022/05/09 09:31:38;;;;;;;4.12;2.10;;;19.70;99.90;;;;;;1894206;75;21157;-82
2022/05/09 09:37:13;;;;;;;2.00;1.70;;;19.70;99.90;;;;;;1945937;72;22224;-81
2022/05/09 09:40:23;;;;;;;3.95;2.10;;;19.80;99.90;;;;;;1911201;75;21079;-82
2022/05/09 09:46:12;;;;;;;4.00;2.08;;;19.80;99.90;;;;;;1928718;72;22423;-81
2022/05/09 09:49:24;;;;;;;3.20;2.12;;;19.80;99.90;;;;;;1889055;75;21538;-81
2022/05/09 09:52:41;;;;;;;3.22;1.92;;;19.90;99.90;;;;;;1881519;75;21085;-81
2022/05/09 09:55:31;;;;;;;;;;;20.00;99.90;;;;;;1875553;75;21067;-82
2022/05/09 09:58:25;;;;;;;4.50;1.75;;;20.10;99.90;;;;;;1894209;75;20219;-82
2022/05/09 10:01:22;;;;;;;2.42;1.80;;;20.20;99.90;;;;;;1893891;75;21135;-81
2022/05/09 10:04:15;;;;;;;3.33;2.00;;;20.30;99.90;;;;;;1872136;75;21114;-81
2022/05/09 10:07:12;;;;;;;3.05;1.72;;;20.50;99.90;;;;;;1884216;75;21119;-82
2022/05/09 10:10:10;;;;;;;2.92;1.67;;;20.40;99.90;;;;;;1874853;75;21205;-82
2022/05/09 10:13:05;;;;;;;2.80;2.33;;;20.50;99.90;;;;;;1900426;75;21087;-82
2022/05/09 10:16:05;;;;;;;3.42;2.10;;;20.30;99.90;;;;;;1882175;75;21047;-82
2022/05/09 10:18:58;;;;;;;4.90;2.30;;;20.40;99.90;;;;;;1886212;75;21106;-83
2022/05/09 10:25:12;;;;;;;5.55;2.05;;;20.60;99.90;;;;;;1838263;77;21078;-82
2022/05/09 10:28:08;;;;;;;2.45;2.15;;;20.70;99.90;;;;;;1872633;76;21090;-82
2022/05/09 10:31:05;;;;;;;2.65;1.98;;;20.70;99.90;;;;;;1881765;75;21152;-82
2022/05/09 10:34:01;;;;;;;2.22;1.90;;;20.90;99.90;;;;;;1883316;75;21124;-82
2022/05/09 10:36:55;;;;;;;2.50;2.20;;;20.90;99.90;;;;;;1903177;75;21115;-83
2022/05/09 10:42:34;;;;;;;2.27;2.08;;;21.10;99.90;;;;;;1929433;72;22153;-80
2022/05/09 10:45:48;;;;;;;2.98;2.10;;;21.20;99.90;;;;;;1886081;75;21096;-83
2022/05/09 10:51:43;;;;;;;1.80;1.70;;;21.40;99.90;;;;;;1970723;72;22302;-83
2022/05/09 10:54:59;;;;;;;3.17;1.92;;;21.40;99.90;;;;;;1904689;75;21083;-83
2022/05/09 10:58:13;;;;;;;2.30;2.10;;;21.40;99.90;;;;;;1904639;75;21554;-82
2022/05/09 11:01:09;;;;;;;3.02;1.72;;;21.40;99.90;;;;;;1904728;75;21114;-83
2022/05/09 11:04:19;;;;;;;1.67;1.50;;;21.60;99.90;;;;;;1904860;75;21098;-83
2022/05/09 11:07:16;;;;;;;2.30;2.10;;;21.60;99.90;;;;;;1904827;75;21169;-83
2022/05/09 11:10:18;;;;;;;1.80;1.70;;;21.70;99.90;;;;;;1904553;75;21204;-83
2022/05/09 11:13:23;;;;;;;2.12;1.80;;;21.90;99.90;;;;;;1904935;75;21103;-83
2022/05/09 11:16:17;;;;;;;1.77;1.67;;;22.10;99.90;;;;;;1904666;75;21099;-83
2022/05/09 11:19:20;;;;;;;2.10;1.90;;;22.10;99.90;;;;;;1922644;74;21119;-83
2022/05/09 11:22:17;;;;;;;1.80;1.70;;;22.20;99.90;;;;;;1919380;74;21188;-83
2022/05/09 11:25:17;;;;;;;4.53;2.30;;;22.30;99.90;;;;;;1911997;74;21180;-82
2022/05/09 11:30:53;;;;;;;3.67;2.00;;;22.40;99.90;;;;;;1934721;72;22209;-82
2022/05/09 11:34:14;;;;;;;2.83;2.17;;;22.40;99.90;;;;;;1905557;75;21192;-82
2022/05/09 11:37:28;;;;;;;2.17;2.08;;;22.50;99.90;;;;;;1890798;75;21216;-82
2022/05/09 11:40:26;;;;;;;2.15;1.92;;;22.60;99.90;;;;;;1900520;75;21128;-82
2022/05/09 11:44:12;;;;;;;3.15;1.92;;;22.70;99.90;;;;;;1900218;75;21060;-82
2022/05/09 11:50:18;;;;;;;2.27;2.00;;;22.50;99.90;;;;;;1952366;72;22619;-83
2022/05/09 11:53:33;;;;;;;3.47;1.60;;;22.50;99.90;;;;;;1919421;73;21155;-83
2022/05/09 11:56:46;;;;;;;3.40;1.70;;;22.70;99.90;;;;;;1936411;73;21080;-82
2022/05/09 11:59:40;;;;;;;2.30;1.60;;;22.80;99.90;;;;;;1924388;73;21509;-82
2022/05/09 12:02:53;;;;;;;2.25;2.05;;;22.90;99.90;;;;;;1932251;73;21110;-82
2022/05/09 12:05:58;;;;;;;3.27;1.80;;;23.00;99.90;;;;;;1940489;73;21090;-82
2022/05/09 12:08:50;;;;;;;3.47;1.80;;;23.00;99.90;;;;;;1916791;75;21180;-82
2022/05/09 12:11:48;;;;;;;2.25;1.70;;;23.10;99.90;;;;;;1917024;75;21162;-83
2022/05/09 12:14:53;;;;;;;1.72;1.52;;;23.20;99.90;;;;;;1916512;75;21186;-82
2022/05/09 12:17:48;;;;;;;3.62;2.17;;;23.20;99.90;;;;;;1917027;75;21055;-79
2022/05/09 12:21:22;;;;;;;2.15;1.95;;;23.20;99.90;;;;;;1917901;73;21272;-78
2022/05/09 12:24:26;;;;;;;4.70;1.85;;;23.40;99.90;;;;;;1922324;73;21043;-78
2022/05/09 12:30:51;;;;;;;2.25;1.35;;;23.50;99.90;;;;;;1935007;72;22209;-78
2022/05/09 12:34:01;;;;;;;1.70;1.20;;;23.50;99.90;;;;;;1917457;74;21121;-78
2022/05/09 12:37:13;;;;;;;1.87;1.40;;;23.40;99.90;;;;;;1906698;75;21054;-78
2022/05/09 12:40:13;;;;;;;2.35;1.45;;;23.50;99.90;;;;;;1906890;75;21113;-78
2022/05/09 12:43:25;;;;;;;3.65;1.27;;;23.60;99.90;;;;;;1890837;75;21106;-78
2022/05/09 12:46:23;;;;;;;2.30;1.65;;;23.70;99.90;;;;;;1916356;75;21181;-78
2022/05/09 13:05:00;;;;;;;2.50;1.20;;;24.00;99.90;;;;;;1949046;72;22165;-78
2022/05/09 13:08:13;;;;;;;1.45;1.30;;;24.00;99.90;;;;;;1905402;75;21162;-78
2022/05/09 13:11:27;;;;;;;1.90;1.60;;;24.10;99.90;;;;;;1905283;75;21058;-78
2022/05/09 13:14:23;;;;;;;3.10;1.30;;;24.20;99.90;;;;;;1915789;75;21063;-79
2022/05/09 13:17:37;;;;;;;2.47;1.17;;;24.30;99.90;;;;;;1896552;75;21184;-78
2022/05/09 13:20:30;;;;;;;3.05;1.62;;;24.30;99.90;;;;;;1902993;75;21149;-78
2022/05/09 13:26:08;;;;;;;2.08;1.32;;;24.40;99.90;;;;;;1944355;72;22155;-78
2022/05/09 13:29:26;;;;;;;3.12;1.30;;;24.50;99.90;;;;;;1916322;75;21059;-78
2022/05/09 13:35:22;;;;;;;1.45;1.30;;;24.30;99.90;;;;;;1933690;72;22169;-78
2022/05/09 13:38:36;;;;;;;3.33;1.20;;;24.40;99.90;;;;;;1915097;74;21494;-78
2022/05/09 13:41:47;;;;;;;1.47;1.37;;;24.70;99.90;;;;;;1916967;74;21090;-78
2022/05/09 13:47:20;;;;;;;1.32;1.12;;;24.80;99.90;;;;;;1939364;72;22118;-77
2022/05/09 13:50:33;;;;;;;4.15;1.50;;;25.00;99.90;;;;;;1905423;75;21110;-80
2022/05/09 13:53:49;;;;;;;1.95;1.50;;;25.20;99.90;;;;;;1907674;75;21394;-79
2022/05/09 13:56:41;;;;;;;1.60;1.42;;;25.50;99.90;;;;;;1900432;75;21202;-77
2022/05/09 13:59:56;;;;;;;1.20;1.10;;;25.30;99.90;;;;;;1914009;74;21188;-78
2022/05/09 14:02:50;;;;;;;6.47;1.50;;;25.90;99.90;;;;;;1920357;74;21056;-79
2022/05/09 14:05:44;;;;;;;1.60;1.10;;;26.30;99.90;;;;;;1912715;74;21159;-79
2022/05/09 14:08:37;;;;;;;1.40;1.30;;;26.40;99.90;;;;;;1892899;75;21091;-79
2022/05/09 14:11:35;;;;;;;1.17;1.00;;;26.60;99.90;;;;;;1883019;75;21113;-79
2022/05/09 14:14:37;;;;;;;2.00;1.10;;;26.70;99.90;;;;;;1894522;75;21127;-79
2022/05/09 14:17:31;;;;;;;2.20;1.20;;;27.10;99.90;;;;;;1909603;74;21151;-79
2022/05/09 14:20:30;;;;;;;3.20;1.60;;;26.80;99.90;;;;;;1920335;74;21476;-79
2022/05/09 14:23:24;;;;;;;1.50;1.40;;;27.10;99.90;;;;;;1900518;74;21096;-79
2022/05/09 14:29:38;;;;;;;1.57;1.00;;;27.10;99.90;;;;;;1884697;75;21127;-78
2022/05/09 14:32:46;;;;;;;1.45;1.00;;;27.10;99.90;;;;;;1883564;75;21175;-78
2022/05/09 14:35:42;;;;;;;1.85;1.20;;;26.80;99.90;;;;;;1883291;75;21100;-79
2022/05/09 14:38:37;;;;;;;3.22;1.20;;;26.80;99.90;;;;;;1885091;74;21227;-78
2022/05/09 14:41:37;;;;;;;1.75;1.62;;;27.10;99.90;;;;;;1918174;74;21168;-79
2022/05/09 14:44:32;;;;;;;2.27;1.67;;;27.30;99.90;;;;;;1889313;75;21059;-78
2022/05/09 14:50:13;;;;;;;2.77;1.77;;;28.40;99.90;;;;;;1953361;72;22263;-79
2022/05/09 14:53:26;;;;;;;2.33;1.10;;;28.50;99.90;;;;;;1911647;75;21137;-79
2022/05/09 15:00:04;;;;;;;3.98;1.40;;;29.00;98.20;;;;;;1857283;75;21044;-79
2022/05/09 15:03:20;;;;;;;2.60;1.30;;;29.00;99.80;;;;;;1904926;75;21086;-78
2022/05/09 15:06:13;;;;;;;1.12;0.90;;;29.20;99.00;;;;;;1917418;75;21086;-78
2022/05/09 15:09:05;;;;;;;1.30;1.10;;;29.20;95.80;;;;;;1917619;75;21088;-79
2022/05/09 15:11:58;;;;;;;4.22;1.40;;;28.90;96.20;;;;;;1899540;75;21095;-78
2022/05/09 15:14:51;;;;;;;1.42;1.20;;;27.90;97.00;;;;;;1906809;75;21149;-78
2022/05/09 15:17:42;;;;;;;1.60;1.50;;;27.30;98.00;;;;;;1906248;75;21224;-79
2022/05/09 15:23:13;;;;;;;1.55;1.10;;;26.20;99.90;;;;;;1943545;72;22216;-78
2022/05/09 15:26:27;;;;;;;1.50;1.25;;;26.00;99.90;;;;;;1897295;75;21160;-78
2022/05/09 15:29:37;;;;;;;2.52;1.30;;;25.70;99.90;;;;;;1915415;74;21082;-78
2022/05/09 15:35:12;;;;;;;1.30;1.20;;;25.30;99.90;;;;;;1960246;72;22201;-79
2022/05/09 15:41:04;;;;;;;2.98;1.90;;;25.20;99.90;;;;;;1963024;72;22114;-79
2022/05/09 15:44:17;;;;;;;2.27;1.42;;;25.00;99.90;;;;;;1917499;75;21109;-79
2022/05/09 15:47:29;;;;;;;1.82;1.40;;;24.80;99.90;;;;;;1917420;75;21039;-79
2022/05/09 15:50:21;;;;;;;1.85;1.27;;;24.70;99.90;;;;;;1939981;73;21047;-79
2022/05/09 15:53:31;;;;;;;1.40;1.22;;;24.70;99.90;;;;;;1923429;73;21046;-79
2022/05/09 15:56:23;;;;;;;2.15;1.37;;;25.00;99.90;;;;;;1927739;73;21592;-79
2022/05/09 15:59:17;;;;;;;2.58;1.60;;;26.30;99.90;;;;;;1917449;75;21518;-79
2022/05/09 16:02:10;;;;;;;2.62;1.37;;;26.00;99.90;;;;;;1917390;75;21055;-79
2022/05/09 16:05:02;;;;;;;1.50;1.40;;;25.60;99.90;;;;;;1917548;75;21083;-79
2022/05/09 16:16:56;;;;;;;1.07;0.90;;;24.30;99.90;;;;;;1949457;72;22213;-78
2022/05/09 16:20:14;;;;;;;1.37;1.07;;;24.30;99.90;;;;;;1889171;75;21095;-78
2022/05/09 16:23:22;;;;;;;1.10;0.95;;;24.30;99.90;;;;;;1875013;75;21189;-78
2022/05/09 16:26:15;;;;;;;4.45;1.80;;;24.30;99.90;;;;;;1883579;75;21109;-78
2022/05/09 16:29:25;;;;;;;2.45;1.60;;;24.40;99.90;;;;;;1883367;75;21055;-78
2022/05/09 16:32:17;;;;;;;3.10;1.65;;;24.90;99.90;;;;;;1883479;75;21150;-78
2022/05/09 16:35:11;;;;;;;1.57;1.30;;;25.10;99.90;;;;;;1904917;75;21075;-78
2022/05/09 16:40:44;;;;;;;2.83;1.40;;;26.00;99.90;;;;;;1935964;72;22146;-79
2022/05/09 16:43:55;;;;;;;3.35;1.90;;;26.40;99.90;;;;;;1908563;75;21116;-78
2022/05/09 16:49:43;;;;;;;1.65;1.40;;;26.40;99.90;;;;;;1952645;72;22094;-79
2022/05/09 16:55:33;;;;;;;1.52;1.37;;;26.20;99.90;;;;;;1945091;72;22131;-79
2022/05/09 17:01:21;;;;;;;3.35;1.32;;;24.80;99.90;;;;;;1951420;72;22993;-79
2022/05/09 17:04:33;;;;;;;3.75;1.25;;;25.40;99.90;;;;;;1933041;74;21142;-79
2022/05/09 17:07:43;;;;;;;3.98;1.27;;;25.20;99.90;;;;;;1914974;74;21113;-79
2022/05/09 17:10:35;;;;;;;1.40;1.30;;;25.00;99.90;;;;;;1905273;75;21180;-78
2022/05/09 17:13:44;;;;;;;1.47;1.37;;;24.90;99.90;;;;;;1922787;74;21080;-79
2022/05/09 17:16:37;;;;;;;2.45;1.40;;;24.60;99.90;;;;;;1917287;74;21051;-79
2022/05/09 17:19:29;;;;;;;1.92;1.40;;;24.20;99.90;;;;;;1905215;75;21070;-78
2022/05/09 17:22:22;;;;;;;1.98;1.57;;;23.90;99.90;;;;;;1905375;75;21087;-79
2022/05/09 17:25:15;;;;;;;1.40;1.30;;;23.80;99.90;;;;;;1924861;74;21192;-79
2022/05/09 17:30:48;;;;;;;2.42;1.50;;;23.30;99.90;;;;;;1934913;72;22120;-79
2022/05/09 17:34:01;;;;;;;2.42;1.20;;;23.30;99.90;;;;;;1912611;75;21134;-79
2022/05/09 17:37:18;;;;;;;3.70;1.70;;;23.50;99.90;;;;;;1906894;75;21176;-78
2022/05/09 17:40:12;;;;;;;4.65;1.60;;;23.60;99.90;;;;;;1906460;75;21510;-78
2022/05/09 17:43:26;;;;;;;2.65;1.40;;;24.00;99.90;;;;;;1907452;75;21114;-78
2022/05/09 17:46:22;;;;;;;3.45;1.85;;;24.50;99.90;;;;;;1898888;75;21503;-78
2022/05/09 17:49:14;;;;;;;2.45;1.70;;;24.50;99.90;;;;;;1899001;75;21165;-78
2022/05/09 17:54:47;;;;;;;1.70;1.37;;;24.10;99.90;;;;;;1934873;72;22659;-79
2022/05/09 17:57:58;;;;;;;2.77;1.70;;;23.90;99.90;;;;;;1894835;75;21083;-78
2022/05/09 18:01:13;;;;;;;1.85;1.70;;;23.60;99.90;;;;;;1906538;75;21140;-78
2022/05/09 18:04:05;;;;;;;1.92;1.50;;;23.60;99.90;;;;;;1912451;75;21150;-78
2022/05/09 18:07:17;;;;;;;5.08;1.87;;;23.50;99.90;;;;;;1901439;75;21117;-79
2022/05/09 18:10:10;;;;;;;4.47;2.10;;;23.30;99.90;;;;;;1897249;75;21110;-78
2022/05/09 18:13:04;;;;;;;3.50;1.72;;;23.20;99.90;;;;;;1895556;75;21137;-78
2022/05/09 18:15:58;;;;;;;1.30;1.20;;;23.00;99.90;;;;;;1895247;75;21061;-78
2022/05/09 18:18:53;;;;;;;2.30;1.50;;;22.80;99.90;;;;;;1917416;75;21197;-78
2022/05/09 18:21:44;;;;;;;3.15;1.98;;;22.70;99.90;;;;;;1900811;75;21048;-78
2022/05/09 18:24:39;;;;;;;2.10;1.90;;;22.60;99.90;;;;;;1906286;75;21560;-78
2022/05/09 18:27:31;;;;;;;4.45;2.30;;;22.60;99.90;;;;;;1906502;74;21109;-79
2022/05/09 18:30:23;;;;;;;2.67;2.12;;;22.50;99.90;;;;;;1908253;75;21047;-79
2022/05/09 18:33:18;;;;;;;3.17;2.65;;;22.40;99.90;;;;;;1917398;75;21160;-79
2022/05/09 18:36:13;;;;;;;4.70;3.75;;;22.30;99.90;;;;;;1899223;75;21098;-79
2022/05/09 18:39:07;;;;;;;5.80;3.65;;;22.20;99.90;;;;;;1912745;75;21565;-78
2022/05/09 18:42:01;;;;;;;4.90;2.50;;;22.10;99.90;;;;;;1911390;75;21195;-79
2022/05/09 18:44:53;;;;;;;2.40;1.02;;;22.00;99.90;;;;;;1906606;75;21097;-78
2022/05/09 18:47:46;;;;;;;2.92;1.30;;;22.00;99.90;;;;;;1892777;75;21066;-79
2022/05/09 18:53:49;;;;;;;1.87;1.30;;;22.10;99.90;;;;;;1910772;74;21132;-78